createdAt,value
2022-08-24T00:01:23.095Z,23.98
2022-08-24T00:03:48.044Z,22.80
2022-08-24T00:06:16.100Z,26.33
2022-08-24T00:08:39.879Z,24.98
2022-08-24T00:11:02.175Z,25.50
2022-08-24T00:13:24.003Z,23.05
2022-08-24T00:15:50.753Z,25.08
2022-08-24T00:18:14.064Z,23.80
2022-08-24T00:20:36.109Z,24.58
2022-08-24T00:22:58.719Z,22.50
2022-08-24T00:25:21.018Z,23.58
2022-08-24T00:27:43.063Z,24.45
2022-08-24T00:30:11.024Z,21.58
2022-08-24T00:32:33.137Z,24.83
2022-08-24T00:34:58.353Z,23.20
2022-08-24T00:37:21.346Z,21.33
2022-08-24T00:39:43.267Z,23.92
2022-08-24T00:42:05.447Z,21.45
2022-08-24T00:44:27.312Z,22.60
2022-08-24T00:47:04.594Z,22.15
2022-08-24T00:50:02.804Z,20.15
2022-08-24T00:52:41.270Z,22.88
2022-08-24T00:55:20.377Z,22.40
2022-08-24T00:57:49.258Z,23.85
2022-08-24T01:00:23.466Z,22.40
2022-08-24T01:02:51.459Z,23.20
2022-08-24T01:05:16.455Z,22.25
2022-08-24T01:07:40.536Z,21.90
2022-08-24T01:10:09.997Z,20.27
2022-08-24T01:12:35.640Z,24.00
2022-08-24T01:15:00.903Z,22.73
2022-08-24T01:17:42.607Z,23.60
2022-08-24T01:20:07.019Z,25.67
2022-08-24T01:22:56.823Z,25.52
2022-08-24T01:25:19.323Z,30.40
2022-08-24T01:27:44.175Z,32.63
2022-08-24T01:30:11.617Z,27.25
2022-08-24T01:32:33.546Z,26.85
2022-08-24T01:34:57.516Z,27.30
2022-08-24T01:37:19.579Z,29.33
2022-08-24T01:39:47.698Z,27.95
2022-08-24T01:42:11.804Z,25.58
2022-08-24T01:44:40.730Z,29.55
2022-08-24T01:47:08.312Z,28.08
2022-08-24T01:49:34.983Z,26.20
2022-08-24T01:51:58.247Z,29.13
2022-08-24T01:54:20.484Z,33.63
2022-08-24T01:56:42.900Z,34.10
2022-08-24T01:59:07.506Z,32.90
2022-08-24T02:01:35.575Z,24.95
2022-08-24T02:04:04.375Z,26.48
2022-08-24T02:06:27.331Z,26.20
2022-08-24T02:08:49.359Z,27.17
2022-08-24T02:11:12.603Z,27.20
2022-08-24T02:13:39.154Z,29.48
2022-08-24T02:16:01.838Z,30.27
2022-08-24T02:18:26.973Z,26.48
2022-08-24T02:20:49.015Z,28.55
2022-08-24T02:23:11.281Z,24.85
2022-08-24T02:25:33.692Z,28.77
2022-08-24T02:27:57.847Z,28.95
2022-08-24T02:30:20.232Z,28.08
2022-08-24T02:32:42.666Z,32.47
2022-08-24T02:35:05.376Z,28.13
2022-08-24T02:37:27.291Z,30.95
2022-08-24T02:39:49.410Z,27.15
2022-08-24T02:42:15.641Z,30.25
2022-08-24T02:44:37.457Z,30.65
2022-08-24T02:47:00.542Z,28.92
2022-08-24T02:49:23.202Z,29.90
2022-08-24T02:51:47.452Z,29.90
2022-08-24T02:54:19.495Z,30.52
2022-08-24T02:56:43.860Z,29.77
2022-08-24T02:59:06.051Z,33.10
2022-08-24T03:01:30.299Z,32.38
2022-08-24T03:03:53.257Z,36.05
2022-08-24T03:06:15.434Z,34.97
2022-08-24T03:08:38.962Z,37.47
2022-08-24T03:11:02.952Z,31.73
2022-08-24T03:13:26.159Z,33.05
2022-08-24T03:15:48.061Z,33.85
2022-08-24T03:18:09.886Z,34.03
2022-08-24T03:20:32.051Z,32.92
2022-08-24T03:22:54.003Z,36.63
2022-08-24T03:25:19.355Z,35.88
2022-08-24T03:27:41.775Z,35.75
2022-08-24T03:30:07.753Z,34.67
2022-08-24T03:32:30.271Z,33.47
2022-08-24T03:34:52.411Z,34.17
2022-08-24T03:37:16.364Z,29.80
2022-08-24T03:39:39.277Z,33.35
2022-08-24T03:42:01.431Z,30.77
2022-08-24T03:44:25.763Z,33.63
2022-08-24T03:46:49.156Z,32.08
2022-08-24T03:49:11.709Z,32.88
2022-08-24T03:51:37.055Z,30.80
2022-08-24T03:54:00.531Z,33.45
2022-08-24T03:56:23.649Z,30.70
2022-08-24T03:58:47.373Z,30.95
2022-08-24T04:01:10.254Z,32.28
2022-08-24T04:03:37.779Z,32.00
2022-08-24T04:06:01.282Z,34.20
2022-08-24T04:08:24.340Z,33.83
2022-08-24T04:10:46.279Z,32.08
2022-08-24T04:13:08.583Z,35.90
2022-08-24T04:15:32.174Z,34.80
2022-08-24T04:17:54.054Z,35.13
2022-08-24T04:20:16.326Z,34.20
2022-08-24T04:22:38.681Z,35.40
2022-08-24T04:25:00.753Z,35.78
2022-08-24T04:27:24.830Z,32.47
2022-08-24T04:29:46.857Z,32.60
2022-08-24T04:32:08.860Z,33.47
2022-08-24T04:34:31.080Z,32.67
2022-08-24T04:36:53.734Z,33.63
2022-08-24T04:39:15.673Z,32.70
2022-08-24T04:41:43.485Z,33.97
2022-08-24T04:44:06.758Z,30.73
2022-08-24T04:46:30.325Z,31.47
2022-08-24T04:48:52.134Z,31.53
2022-08-24T04:51:18.953Z,33.80
2022-08-24T04:53:42.613Z,34.50
2022-08-24T04:56:11.635Z,34.83
2022-08-24T04:58:33.519Z,35.43
2022-08-24T05:00:56.250Z,33.47
2022-08-24T05:03:18.297Z,36.07
2022-08-24T05:05:46.211Z,36.07
2022-08-24T05:08:10.205Z,38.27
2022-08-24T05:10:33.687Z,38.70
2022-08-24T05:12:55.936Z,37.45
2022-08-24T05:15:18.073Z,37.90
2022-08-24T05:17:41.429Z,40.13
2022-08-24T05:20:06.070Z,39.37
2022-08-24T05:22:27.998Z,35.90
2022-08-24T05:24:51.512Z,33.37
2022-08-24T05:27:14.252Z,38.93
2022-08-24T05:29:37.531Z,36.27
2022-08-24T05:32:00.875Z,39.33
2022-08-24T05:36:47.032Z,41.03
2022-08-24T05:39:28.493Z,41.13
2022-08-24T05:41:52.007Z,40.30
2022-08-24T05:44:19.424Z,40.97
2022-08-24T05:46:43.402Z,39.80
2022-08-24T05:49:05.905Z,42.17
2022-08-24T05:51:29.801Z,40.50
2022-08-24T05:53:59.276Z,39.53
2022-08-24T05:56:31.760Z,44.47
2022-08-24T05:58:55.521Z,44.45
2022-08-24T06:01:22.611Z,43.28
2022-08-24T06:03:45.616Z,45.47
2022-08-24T06:06:11.108Z,48.85
2022-08-24T06:08:41.259Z,51.15
2022-08-24T06:11:15.064Z,51.58
2022-08-24T06:13:37.568Z,55.97
2022-08-24T06:16:21.482Z,55.88
2022-08-24T06:18:44.549Z,56.47
2022-08-24T06:21:10.557Z,58.80
2022-08-24T06:23:34.952Z,60.40
2022-08-24T06:26:22.959Z,60.53
2022-08-24T06:28:45.784Z,63.33
2022-08-24T06:31:07.898Z,65.38
2022-08-24T06:33:31.674Z,62.22
2022-08-24T06:35:54.680Z,62.55
2022-08-24T06:38:19.881Z,65.20
2022-08-24T06:40:42.923Z,58.38
2022-08-24T06:43:06.160Z,54.83
2022-08-24T06:45:48.661Z,52.15
2022-08-24T06:48:13.026Z,54.25
2022-08-24T06:50:35.672Z,49.78
2022-08-24T06:52:57.549Z,47.60
2022-08-24T06:55:20.900Z,47.95
2022-08-24T06:57:42.989Z,44.90
2022-08-24T07:00:08.162Z,48.70
2022-08-24T07:02:31.233Z,46.75
2022-08-24T07:04:53.226Z,42.92
2022-08-24T07:07:33.539Z,43.95
2022-08-24T07:09:55.905Z,42.92
2022-08-24T07:12:17.948Z,45.15
2022-08-24T07:14:40.018Z,45.67
2022-08-24T07:17:01.938Z,42.38
2022-08-24T07:19:25.358Z,42.05
2022-08-24T07:21:47.372Z,40.60
2022-08-24T07:24:10.728Z,41.45
2022-08-24T07:26:34.801Z,42.38
2022-08-24T07:29:06.042Z,38.90
2022-08-24T07:31:39.637Z,34.28
2022-08-24T07:34:12.580Z,36.58
2022-08-24T07:36:41.021Z,36.28
2022-08-24T07:39:06.810Z,39.80
2022-08-24T07:41:51.543Z,37.08
2022-08-24T07:44:15.608Z,39.53
2022-08-24T07:46:39.732Z,38.75
2022-08-24T07:51:34.806Z,32.83
2022-08-24T07:53:56.926Z,30.73
2022-08-24T07:56:23.892Z,29.88
2022-08-24T07:58:48.237Z,32.10
2022-08-24T08:01:10.851Z,30.10
2022-08-24T08:03:34.159Z,31.40
2022-08-24T08:05:58.438Z,31.25
2022-08-24T08:10:42.349Z,28.27
2022-08-24T08:13:05.928Z,32.33
2022-08-24T08:15:28.113Z,30.23
2022-08-24T08:17:58.234Z,30.15
2022-08-24T08:20:20.669Z,26.80
2022-08-24T08:23:01.083Z,24.67
2022-08-24T08:25:57.977Z,19.70
2022-08-24T08:28:36.170Z,21.90
2022-08-24T08:31:05.359Z,22.77
2022-08-24T08:33:30.248Z,26.08
2022-08-24T08:36:10.655Z,20.13
2022-08-24T08:38:40.924Z,18.48
2022-08-24T08:41:17.997Z,14.93
2022-08-24T08:44:07.407Z,15.50
2022-08-24T08:46:57.794Z,14.13
2022-08-24T08:50:08.171Z,13.98
2022-08-24T08:52:48.220Z,11.27
2022-08-24T08:55:53.301Z,13.07
2022-08-24T09:02:01.847Z,12.45
2022-08-24T09:05:20.669Z,8.98
2022-08-24T09:07:57.531Z,7.57
2022-08-24T09:10:55.995Z,5.22
2022-08-24T09:14:14.581Z,8.85
2022-08-24T09:16:47.649Z,10.35
2022-08-24T09:19:37.878Z,6.57
2022-08-24T09:22:19.386Z,6.28
2022-08-24T09:24:53.429Z,6.75
2022-08-24T09:28:00.585Z,6.47
2022-08-24T09:30:29.951Z,6.20
2022-08-24T09:32:58.205Z,5.10
2022-08-24T09:35:48.357Z,4.43
2022-08-24T09:38:55.563Z,2.70
2022-08-24T09:41:35.809Z,3.40
2022-08-24T09:44:19.209Z,3.90
2022-08-24T09:47:08.693Z,6.47
2022-08-24T09:49:58.335Z,7.45
2022-08-24T09:53:06.991Z,7.30
2022-08-24T09:55:40.906Z,4.88
2022-08-24T09:58:35.574Z,4.45
2022-08-24T10:01:22.500Z,3.10
2022-08-24T10:04:12.438Z,3.38
2022-08-24T10:07:18.979Z,4.60
2022-08-24T10:10:29.931Z,2.70
2022-08-24T10:13:29.646Z,4.53
2022-08-24T10:16:16.047Z,5.93
2022-08-24T10:19:05.784Z,5.53
2022-08-24T10:21:58.602Z,4.30
2022-08-24T10:24:40.353Z,4.70
2022-08-24T10:27:38.954Z,4.00
2022-08-24T10:30:59.798Z,5.60
2022-08-24T10:33:59.206Z,4.50
2022-08-24T10:36:50.320Z,2.97
2022-08-24T10:39:43.994Z,3.40
2022-08-24T10:42:56.298Z,5.10
2022-08-24T10:45:58.633Z,4.32
2022-08-24T10:49:25.644Z,5.25
2022-08-24T10:52:20.139Z,4.28
2022-08-24T10:54:42.574Z,6.28
2022-08-24T10:57:35.799Z,4.00
2022-08-24T11:00:22.943Z,4.18
2022-08-24T11:02:47.755Z,4.47
2022-08-24T11:05:22.080Z,4.60
2022-08-24T11:08:07.463Z,4.00
2022-08-24T11:10:35.469Z,5.45
2022-08-24T11:13:26.747Z,3.13
2022-08-24T11:16:00.314Z,3.38
2022-08-24T11:18:23.128Z,2.67
2022-08-24T11:20:48.780Z,2.97
2022-08-24T11:23:17.211Z,4.78
2022-08-24T11:26:03.009Z,2.85
2022-08-24T11:28:44.443Z,2.33
2022-08-24T11:31:19.714Z,6.75
2022-08-24T11:33:49.934Z,3.50
2022-08-24T11:36:28.063Z,2.42
2022-08-24T11:39:26.546Z,3.65
2022-08-24T11:42:20.812Z,4.00
2022-08-24T11:45:15.283Z,4.30
2022-08-24T11:47:39.842Z,3.38
2022-08-24T11:50:41.277Z,4.88
2022-08-24T11:53:23.657Z,7.20
2022-08-24T11:56:08.143Z,5.13
2022-08-24T11:58:54.601Z,3.22
2022-08-24T12:01:45.044Z,4.05
2022-08-24T12:04:26.101Z,5.13
2022-08-24T12:07:05.521Z,2.80
2022-08-24T12:10:21.294Z,3.00
2022-08-24T12:12:55.200Z,4.43
2022-08-24T12:15:41.279Z,4.43
2022-08-24T12:18:54.091Z,4.93
2022-08-24T12:21:25.597Z,3.58
2022-08-24T12:23:59.075Z,3.53
2022-08-24T12:27:08.279Z,7.50
2022-08-24T12:29:44.717Z,4.18
2022-08-24T12:32:19.059Z,5.00
2022-08-24T12:37:38.465Z,5.68
2022-08-24T12:40:25.496Z,6.07
2022-08-24T12:43:18.090Z,4.57
2022-08-24T12:45:40.578Z,3.88
2022-08-24T12:48:16.236Z,4.60
2022-08-24T12:50:51.521Z,5.68
2022-08-24T12:53:19.385Z,3.00
2022-08-24T12:56:02.993Z,3.90
2022-08-24T12:58:54.395Z,4.13
2022-08-24T13:01:20.964Z,3.88
2022-08-24T13:04:05.319Z,3.65
2022-08-24T13:06:48.898Z,4.95
2022-08-24T13:09:52.413Z,4.65
2022-08-24T13:12:33.072Z,4.63
2022-08-24T13:15:23.898Z,3.30
2022-08-24T13:17:46.303Z,4.85
2022-08-24T13:20:49.865Z,2.85
2022-08-24T13:23:11.788Z,5.18
2022-08-24T13:25:51.700Z,3.25
2022-08-24T13:28:22.672Z,5.15
2022-08-24T13:30:56.484Z,3.30
2022-08-24T13:33:25.067Z,2.85
2022-08-24T13:36:28.839Z,6.30
2022-08-24T13:39:05.161Z,2.50
2022-08-24T13:41:55.485Z,4.88
2022-08-24T13:44:51.339Z,3.72
2022-08-24T13:48:07.132Z,3.45
2022-08-24T13:51:14.219Z,3.20
2022-08-24T13:54:40.458Z,4.13
2022-08-24T13:57:32.210Z,4.28
2022-08-24T14:00:12.633Z,4.70
2022-08-24T14:03:08.942Z,4.63
2022-08-24T14:05:45.924Z,2.72
2022-08-24T14:08:44.652Z,11.15
2022-08-24T14:11:16.208Z,2.28
2022-08-24T14:14:24.345Z,4.20
2022-08-24T14:17:35.761Z,4.00
2022-08-24T14:20:22.348Z,3.55
2022-08-24T14:23:02.974Z,5.05
2022-08-24T14:25:33.783Z,4.18
2022-08-24T14:27:55.516Z,3.00
2022-08-24T14:30:17.258Z,2.00
2022-08-24T14:32:59.586Z,6.15
2022-08-24T14:35:42.573Z,3.80
2022-08-24T14:38:23.094Z,4.80
2022-08-24T14:41:32.466Z,5.90
2022-08-24T14:44:07.764Z,3.97
2022-08-24T14:46:45.100Z,5.32
2022-08-24T14:49:56.198Z,4.82
2022-08-24T14:52:42.826Z,4.68
2022-08-24T14:55:38.280Z,3.33
2022-08-24T14:58:29.185Z,2.13
2022-08-24T15:01:32.809Z,3.08
2022-08-24T15:04:16.664Z,2.90
2022-08-24T15:07:21.172Z,2.90
2022-08-24T15:09:44.995Z,3.42
2022-08-24T15:12:17.144Z,2.30
2022-08-24T15:14:53.480Z,3.25
2022-08-24T15:17:29.074Z,4.68
2022-08-24T15:20:16.076Z,3.42
2022-08-24T15:23:18.901Z,5.95
2022-08-24T15:25:59.354Z,3.78
2022-08-24T15:28:30.005Z,4.68
2022-08-24T15:31:01.638Z,3.88
2022-08-24T15:33:25.201Z,7.43
2022-08-24T15:36:12.264Z,3.95
2022-08-24T15:38:38.311Z,3.22
2022-08-24T15:41:14.239Z,4.60
2022-08-24T15:44:07.737Z,6.50
2022-08-24T15:46:45.494Z,4.38
2022-08-24T15:49:24.714Z,4.38
2022-08-24T15:52:00.667Z,5.47
2022-08-24T15:54:25.538Z,3.70
2022-08-24T15:56:51.428Z,6.45
2022-08-24T15:59:28.092Z,4.13
2022-08-24T16:02:29.823Z,3.42
2022-08-24T16:05:01.473Z,3.92
2022-08-24T16:07:31.288Z,3.35
2022-08-24T16:10:12.911Z,2.92
2022-08-24T16:12:35.490Z,4.28
2022-08-24T16:15:11.887Z,10.80
2022-08-24T16:17:39.887Z,3.97
2022-08-24T16:20:27.063Z,4.60
2022-08-24T16:22:58.458Z,5.25
2022-08-24T16:25:49.220Z,5.55
2022-08-24T16:28:36.775Z,3.90
2022-08-24T16:31:07.707Z,4.97
2022-08-24T16:33:37.364Z,5.35
2022-08-24T16:36:09.975Z,4.82
2022-08-24T16:38:34.444Z,5.60
2022-08-24T16:41:02.139Z,6.40
2022-08-24T16:43:24.193Z,4.40
2022-08-24T16:45:46.974Z,4.70
2022-08-24T16:48:08.962Z,5.22
2022-08-24T16:50:31.120Z,4.30
2022-08-24T16:52:52.987Z,7.70
2022-08-24T16:55:16.849Z,4.22
2022-08-24T16:57:39.633Z,4.90
2022-08-24T17:00:01.507Z,4.22
2022-08-24T17:02:25.971Z,5.85
2022-08-24T17:04:49.815Z,2.70
2022-08-24T17:07:19.988Z,3.88
2022-08-24T17:09:47.014Z,4.53
2022-08-24T17:12:09.696Z,4.05
2022-08-24T17:14:31.957Z,6.38
2022-08-24T17:16:54.875Z,2.95
2022-08-24T17:19:20.533Z,4.90
2022-08-24T17:21:42.814Z,6.60
2022-08-24T17:24:07.442Z,7.28
2022-08-24T17:26:31.928Z,4.18
2022-08-24T17:28:55.403Z,4.03
2022-08-24T17:31:17.432Z,5.93
2022-08-24T17:33:40.546Z,5.80
2022-08-24T17:36:06.837Z,4.20
2022-08-24T17:38:51.710Z,6.20
2022-08-24T17:41:18.444Z,2.95
2022-08-24T17:43:41.438Z,4.32
2022-08-24T17:46:03.764Z,5.45
2022-08-24T17:48:26.801Z,3.85
2022-08-24T17:50:48.734Z,3.75
2022-08-24T17:53:10.894Z,3.67
2022-08-24T17:55:32.995Z,3.60
2022-08-24T17:57:54.835Z,5.68
2022-08-24T18:00:17.198Z,4.97
2022-08-24T18:02:41.651Z,3.58
2022-08-24T18:05:04.417Z,5.28
2022-08-24T18:07:42.724Z,5.30
2022-08-24T18:10:14.678Z,4.47
2022-08-24T18:12:36.623Z,9.50
2022-08-24T18:14:58.598Z,6.30
2022-08-24T18:17:34.062Z,6.80
2022-08-24T18:19:56.466Z,7.75
2022-08-24T18:22:19.571Z,9.77
2022-08-24T18:24:42.392Z,9.02
2022-08-24T18:27:16.228Z,6.82
2022-08-24T18:29:42.538Z,7.97
2022-08-24T18:32:05.581Z,5.35
2022-08-24T18:34:30.798Z,7.70
2022-08-24T18:36:52.904Z,6.85
2022-08-24T18:39:15.276Z,4.50
2022-08-24T18:41:41.682Z,6.53
2022-08-24T18:44:15.561Z,4.40
2022-08-24T18:46:38.773Z,5.93
2022-08-24T18:49:01.867Z,6.82
2022-08-24T18:51:24.730Z,6.28
2022-08-24T18:54:07.591Z,6.00
2022-08-24T18:56:29.465Z,4.28
2022-08-24T18:58:51.286Z,9.20
2022-08-24T19:01:13.845Z,5.88
2022-08-24T19:03:36.252Z,8.18
2022-08-24T19:05:58.408Z,9.45
2022-08-24T19:08:20.516Z,5.63
2022-08-24T19:10:42.477Z,5.32
2022-08-24T19:13:18.203Z,9.52
2022-08-24T19:15:40.627Z,6.57
2022-08-24T19:18:03.936Z,9.07
2022-08-24T19:20:27.506Z,7.82
2022-08-24T19:22:53.293Z,6.18
2022-08-24T19:25:27.468Z,6.40
2022-08-24T19:27:53.675Z,7.20
2022-08-24T19:30:17.205Z,5.85
2022-08-24T19:32:41.399Z,6.63
2022-08-24T19:35:03.612Z,6.25
2022-08-24T19:37:25.493Z,6.72
2022-08-24T19:39:47.970Z,6.32
2022-08-24T19:42:12.653Z,8.48
2022-08-24T19:44:55.552Z,8.20
2022-08-24T19:47:18.109Z,5.28
2022-08-24T19:49:41.054Z,5.10
2022-08-24T19:52:03.997Z,7.65
2022-08-24T19:54:36.482Z,7.95
2022-08-24T19:56:59.830Z,9.93
2022-08-24T19:59:28.239Z,7.47
2022-08-24T20:01:50.232Z,5.93
2022-08-24T20:04:12.997Z,5.10
2022-08-24T20:06:39.681Z,9.07
2022-08-24T20:09:04.137Z,6.30
2022-08-24T20:13:50.236Z,6.35
2022-08-24T20:18:39.611Z,7.22
2022-08-24T20:21:02.174Z,5.53
2022-08-24T20:23:26.067Z,6.65
2022-08-24T20:25:48.114Z,6.28
2022-08-24T20:28:28.716Z,4.75
2022-08-24T20:30:51.586Z,4.57
2022-08-24T20:33:21.130Z,4.50
2022-08-24T20:35:45.652Z,7.50
2022-08-24T20:38:07.905Z,3.88
2022-08-24T20:40:29.868Z,4.15
2022-08-24T20:42:51.737Z,7.07
2022-08-24T20:45:14.944Z,5.03
2022-08-24T20:47:45.985Z,4.85
2022-08-24T20:50:09.190Z,4.13
2022-08-24T20:52:31.013Z,5.07
2022-08-24T20:54:52.892Z,5.22
2022-08-24T20:57:19.792Z,3.83
2022-08-24T20:59:41.739Z,6.25
2022-08-24T21:02:04.202Z,6.13
2022-08-24T21:04:26.114Z,6.25
2022-08-24T21:06:51.650Z,5.28
2022-08-24T21:09:14.344Z,6.45
2022-08-24T21:11:37.732Z,7.28
2022-08-24T21:14:01.254Z,5.20
2022-08-24T21:16:23.197Z,5.83
2022-08-24T21:18:46.921Z,6.15
2022-08-24T21:21:10.321Z,4.35
2022-08-24T21:23:34.141Z,4.37
2022-08-24T21:26:00.724Z,3.92
2022-08-24T21:28:24.376Z,4.22
2022-08-24T21:30:46.298Z,4.45
2022-08-24T21:33:26.779Z,4.75
2022-08-24T21:35:48.613Z,6.65
2022-08-24T21:38:13.874Z,5.45
2022-08-24T21:40:37.003Z,6.13
2022-08-24T21:42:58.940Z,5.75
2022-08-24T21:45:22.917Z,5.60
2022-08-24T21:47:44.985Z,6.07
2022-08-24T21:50:09.469Z,8.88
2022-08-24T21:52:31.519Z,6.97
2022-08-24T21:54:56.371Z,5.57
2022-08-24T21:57:18.421Z,8.25
2022-08-24T21:59:40.333Z,4.80
2022-08-24T22:02:02.293Z,5.15
2022-08-24T22:04:24.238Z,4.93
2022-08-24T22:06:46.099Z,4.85
2022-08-24T22:09:08.155Z,6.45
2022-08-24T22:11:31.133Z,5.45
2022-08-24T22:13:54.843Z,5.20
2022-08-24T22:16:17.802Z,4.93
2022-08-24T22:18:41.357Z,5.40
2022-08-24T22:21:15.425Z,6.80
2022-08-24T22:23:37.701Z,6.63
2022-08-24T22:25:59.566Z,6.10
2022-08-24T22:28:22.005Z,6.05
2022-08-24T22:30:47.983Z,5.82
2022-08-24T22:33:10.897Z,6.95
2022-08-24T22:35:34.530Z,5.55
2022-08-24T22:38:06.701Z,6.90
2022-08-24T22:40:28.573Z,7.25
2022-08-24T22:42:50.506Z,6.28
2022-08-24T22:45:12.489Z,6.80
2022-08-24T22:47:34.407Z,7.45
2022-08-24T22:49:56.253Z,6.95
2022-08-24T22:52:18.667Z,7.57
2022-08-24T22:54:41.425Z,6.68
2022-08-24T22:57:04.027Z,7.22
2022-08-24T22:59:37.094Z,7.25
2022-08-24T23:01:59.005Z,6.30
2022-08-24T23:04:36.124Z,6.70
2022-08-24T23:06:58.523Z,6.32
2022-08-24T23:09:20.757Z,6.45
2022-08-24T23:11:44.361Z,7.28
2022-08-24T23:14:09.241Z,7.30
2022-08-24T23:16:35.205Z,6.97
2022-08-24T23:19:16.026Z,7.18
2022-08-24T23:21:38.106Z,7.60
2022-08-24T23:24:00.163Z,8.23
2022-08-24T23:26:22.697Z,10.40
2022-08-24T23:28:45.169Z,8.57
2022-08-24T23:31:13.521Z,9.18
2022-08-24T23:33:38.226Z,8.68
2022-08-24T23:36:25.058Z,8.93
2022-08-24T23:38:49.034Z,7.38
2022-08-24T23:41:18.491Z,7.53
2022-08-24T23:43:42.243Z,9.80
2022-08-24T23:46:05.459Z,8.68
2022-08-24T23:48:28.058Z,9.27
2022-08-24T23:50:50.107Z,8.98
2022-08-24T23:53:12.075Z,8.82
2022-08-24T23:55:34.115Z,10.85
2022-08-24T23:57:55.999Z,9.68
